createdAt,value
2023-04-26T00:00:43.242Z,10.38
2023-04-26T00:03:10.700Z,10.43
2023-04-26T00:05:38.343Z,10.57
2023-04-26T00:08:05.424Z,10.50
2023-04-26T00:10:32.857Z,10.42
2023-04-26T00:12:59.988Z,10.41
2023-04-26T00:15:27.290Z,10.42
2023-04-26T00:17:54.637Z,10.28
2023-04-26T00:20:22.276Z,10.41
2023-04-26T00:22:49.314Z,10.47
2023-04-26T00:25:16.521Z,10.47
2023-04-26T00:27:43.652Z,10.45
2023-04-26T00:30:11.324Z,10.41
2023-04-26T00:32:38.735Z,10.44
2023-04-26T00:35:07.880Z,10.49
2023-04-26T00:37:35.027Z,10.49
2023-04-26T00:40:02.293Z,10.47
2023-04-26T00:42:31.767Z,10.46
2023-04-26T00:44:58.797Z,10.51
2023-04-26T00:47:26.722Z,10.37
2023-04-26T00:49:53.870Z,10.48
2023-04-26T00:52:21.872Z,10.50
2023-04-26T00:54:49.558Z,10.53
2023-04-26T00:57:16.596Z,10.50
2023-04-26T00:59:43.809Z,10.45
2023-04-26T01:02:11.191Z,10.48
2023-04-26T01:04:40.816Z,10.47
2023-04-26T01:07:08.493Z,10.46
2023-04-26T01:09:35.817Z,10.46
2023-04-26T01:12:03.121Z,10.33
2023-04-26T01:14:30.780Z,10.42
2023-04-26T01:16:58.000Z,10.37
2023-04-26T01:19:25.776Z,10.33
2023-04-26T01:21:52.988Z,10.45
2023-04-26T01:24:21.554Z,10.41
2023-04-26T01:26:48.876Z,10.38
2023-04-26T01:29:21.427Z,10.37
2023-04-26T01:31:49.258Z,10.41
2023-04-26T01:34:16.703Z,10.42
2023-04-26T01:36:46.909Z,10.42
2023-04-26T01:39:14.321Z,10.41
2023-04-26T01:41:41.406Z,10.20
2023-04-26T01:44:08.648Z,10.37
2023-04-26T01:46:36.159Z,10.33
2023-04-26T01:49:03.311Z,10.33
2023-04-26T01:51:30.708Z,10.32
2023-04-26T01:53:57.898Z,10.34
2023-04-26T01:56:25.987Z,10.38
2023-04-26T01:58:56.512Z,10.29
2023-04-26T02:01:24.278Z,10.22
2023-04-26T02:03:52.155Z,10.37
2023-04-26T02:06:21.819Z,10.40
2023-04-26T02:08:49.787Z,10.42
2023-04-26T02:11:17.278Z,10.41
2023-04-26T02:13:44.851Z,10.37
2023-04-26T02:16:12.557Z,10.29
2023-04-26T02:18:39.593Z,10.34
2023-04-26T02:21:09.501Z,10.39
2023-04-26T02:23:36.653Z,10.40
2023-04-26T02:26:04.586Z,10.16
2023-04-26T02:28:31.758Z,10.38
2023-04-26T02:30:58.882Z,10.34
2023-04-26T02:33:26.141Z,10.17
2023-04-26T02:35:53.235Z,10.28
2023-04-26T02:38:20.873Z,10.27
2023-04-26T02:40:48.186Z,10.26
2023-04-26T02:43:17.670Z,10.18
2023-04-26T02:45:44.826Z,10.16
2023-04-26T02:48:14.408Z,10.13
2023-04-26T02:50:42.407Z,10.11
2023-04-26T02:53:10.453Z,10.16
2023-04-26T02:55:39.375Z,10.17
2023-04-26T02:58:06.649Z,10.04
2023-04-26T03:00:34.424Z,10.06
2023-04-26T03:03:03.007Z,10.11
2023-04-26T03:05:30.501Z,10.15
2023-04-26T03:07:58.361Z,10.13
2023-04-26T03:10:25.553Z,10.18
2023-04-26T03:12:52.786Z,10.12
2023-04-26T03:15:20.421Z,10.23
2023-04-26T03:17:47.803Z,10.25
2023-04-26T03:20:15.104Z,10.18
2023-04-26T03:22:42.990Z,10.26
2023-04-26T03:25:11.049Z,10.23
2023-04-26T03:27:38.396Z,10.24
2023-04-26T03:30:06.474Z,10.26
2023-04-26T03:32:35.991Z,10.16
2023-04-26T03:35:03.268Z,10.25
2023-04-26T03:37:32.922Z,10.28
2023-04-26T03:40:08.561Z,10.11
2023-04-26T03:42:37.078Z,10.31
2023-04-26T03:45:04.943Z,10.31
2023-04-26T03:47:34.667Z,10.37
2023-04-26T03:50:01.944Z,10.39
2023-04-26T03:52:31.507Z,10.29
2023-04-26T03:54:58.764Z,10.40
2023-04-26T03:57:25.758Z,10.44
2023-04-26T03:59:53.073Z,10.51
2023-04-26T04:02:21.389Z,10.54
2023-04-26T04:04:49.061Z,10.58
2023-04-26T04:07:16.862Z,10.39
2023-04-26T04:09:43.900Z,10.54
2023-04-26T04:12:10.995Z,10.55
2023-04-26T04:14:38.387Z,10.60
2023-04-26T04:17:06.660Z,10.62
2023-04-26T04:19:34.496Z,10.67
2023-04-26T04:22:01.575Z,10.75
2023-04-26T04:24:29.937Z,10.79
2023-04-26T04:26:56.989Z,10.82
2023-04-26T04:29:24.068Z,10.91
2023-04-26T04:31:51.426Z,10.97
2023-04-26T04:34:19.131Z,11.01
2023-04-26T04:36:46.862Z,11.02
2023-04-26T04:39:16.333Z,11.03
2023-04-26T04:41:48.447Z,11.07
2023-04-26T04:44:18.460Z,11.00
2023-04-26T04:46:45.770Z,11.14
2023-04-26T04:49:13.006Z,11.19
2023-04-26T04:51:40.257Z,11.20
2023-04-26T04:54:18.016Z,11.18
2023-04-26T04:56:47.378Z,11.17
2023-04-26T04:59:16.055Z,11.25
2023-04-26T05:01:43.433Z,11.23
2023-04-26T05:04:14.558Z,11.30
2023-04-26T05:06:42.222Z,11.26
2023-04-26T05:09:11.536Z,11.35
2023-04-26T05:11:39.668Z,11.42
2023-04-26T05:14:08.606Z,11.40
2023-04-26T05:16:36.133Z,11.36
2023-04-26T05:19:04.185Z,11.38
2023-04-26T05:21:32.454Z,11.33
2023-04-26T05:24:00.303Z,11.34
2023-04-26T05:26:27.379Z,11.47
2023-04-26T05:29:12.877Z,11.52
2023-04-26T05:31:51.182Z,11.53
2023-04-26T05:34:28.297Z,11.61
2023-04-26T05:36:57.795Z,11.69
2023-04-26T05:39:25.226Z,11.73
2023-04-26T05:41:52.340Z,11.71
2023-04-26T05:44:19.502Z,11.80
2023-04-26T05:46:47.636Z,11.80
2023-04-26T05:49:14.909Z,11.88
2023-04-26T05:51:42.521Z,11.97
2023-04-26T05:54:09.596Z,12.01
2023-04-26T05:56:36.757Z,11.92
2023-04-26T05:59:03.976Z,11.98
2023-04-26T06:01:33.333Z,12.03
2023-04-26T06:04:01.952Z,12.00
2023-04-26T06:06:35.732Z,12.09
2023-04-26T06:09:03.109Z,12.09
2023-04-26T06:11:30.376Z,12.14
2023-04-26T06:13:57.620Z,11.99
2023-04-26T06:16:26.034Z,12.21
2023-04-26T06:18:53.147Z,12.17
2023-04-26T06:21:20.304Z,12.23
2023-04-26T06:23:47.947Z,12.15
2023-04-26T06:26:17.879Z,12.30
2023-04-26T06:28:45.014Z,12.36
2023-04-26T06:31:12.140Z,12.32
2023-04-26T06:33:39.863Z,12.15
2023-04-26T06:36:11.263Z,12.06
2023-04-26T06:38:38.315Z,12.34
2023-04-26T06:41:05.686Z,12.25
2023-04-26T06:43:33.757Z,12.35
2023-04-26T06:46:06.660Z,12.46
2023-04-26T06:48:33.934Z,12.46
2023-04-26T06:51:12.466Z,12.58
2023-04-26T06:53:39.682Z,12.71
2023-04-26T06:56:06.875Z,12.68
2023-04-26T06:58:34.038Z,12.75
2023-04-26T07:01:01.387Z,12.76
2023-04-26T07:03:29.658Z,12.81
2023-04-26T07:05:56.990Z,12.70
2023-04-26T07:08:24.025Z,12.65
2023-04-26T07:10:51.975Z,12.64
2023-04-26T07:13:19.234Z,12.78
2023-04-26T07:15:46.399Z,12.64
2023-04-26T07:18:13.562Z,12.79
2023-04-26T07:20:40.846Z,12.79
2023-04-26T07:23:07.981Z,12.75
2023-04-26T07:25:35.137Z,12.78
2023-04-26T07:28:02.187Z,12.83
2023-04-26T07:30:29.473Z,12.97
2023-04-26T07:32:56.858Z,12.93
2023-04-26T07:35:24.133Z,13.03
2023-04-26T07:37:51.178Z,13.06
2023-04-26T07:40:18.952Z,13.14
2023-04-26T07:42:47.327Z,13.03
2023-04-26T07:45:14.463Z,13.23
2023-04-26T07:47:41.832Z,13.37
2023-04-26T07:50:09.990Z,13.41
2023-04-26T07:52:37.140Z,13.21
2023-04-26T07:55:04.806Z,13.29
2023-04-26T07:57:31.936Z,13.27
2023-04-26T07:59:59.042Z,13.56
2023-04-26T08:02:36.813Z,13.47
2023-04-26T08:05:11.229Z,13.37
2023-04-26T08:07:38.402Z,13.37
2023-04-26T08:10:06.377Z,13.22
2023-04-26T08:12:34.488Z,13.10
2023-04-26T08:15:02.383Z,12.74
2023-04-26T08:17:33.439Z,12.77
2023-04-26T08:20:00.759Z,12.69
2023-04-26T08:22:27.967Z,12.82
2023-04-26T08:24:56.114Z,12.78
2023-04-26T08:27:23.487Z,12.75
2023-04-26T08:29:50.870Z,12.92
2023-04-26T08:32:17.860Z,12.91
2023-04-26T08:34:45.078Z,12.96
2023-04-26T08:37:12.995Z,12.90
2023-04-26T08:39:40.140Z,13.00
2023-04-26T08:42:15.578Z,13.00
2023-04-26T08:44:44.294Z,12.90
2023-04-26T08:47:18.170Z,13.00
2023-04-26T08:49:53.183Z,13.04
2023-04-26T08:52:23.579Z,13.21
2023-04-26T08:54:53.879Z,13.39
2023-04-26T08:57:22.724Z,13.44
2023-04-26T08:59:50.576Z,13.58
2023-04-26T09:02:20.452Z,13.60
2023-04-26T09:04:49.144Z,13.62
2023-04-26T09:07:27.848Z,13.75
2023-04-26T09:09:57.793Z,13.69
2023-04-26T09:12:25.310Z,13.90
2023-04-26T09:14:53.299Z,13.87
2023-04-26T09:17:31.266Z,14.03
2023-04-26T09:19:59.704Z,14.00
2023-04-26T09:22:34.821Z,14.22
2023-04-26T09:25:04.162Z,14.30
2023-04-26T09:27:41.552Z,14.52
2023-04-26T09:30:20.984Z,14.45
2023-04-26T09:32:49.903Z,14.50
2023-04-26T09:35:36.196Z,14.48
2023-04-26T09:38:10.903Z,14.25
2023-04-26T09:40:42.263Z,14.14
2023-04-26T09:43:22.870Z,13.89
2023-04-26T09:45:54.634Z,13.81
2023-04-26T09:48:34.447Z,13.76
2023-04-26T09:51:14.498Z,13.91
2023-04-26T09:53:46.564Z,14.01
2023-04-26T09:56:15.187Z,14.10
2023-04-26T09:58:52.495Z,14.18
2023-04-26T10:01:20.535Z,14.02
2023-04-26T10:03:48.182Z,14.13
2023-04-26T10:06:16.496Z,14.01
2023-04-26T10:08:44.475Z,14.02
2023-04-26T10:11:12.998Z,14.18
2023-04-26T10:13:41.986Z,14.32
2023-04-26T10:16:10.560Z,14.35
2023-04-26T10:18:38.273Z,14.53
2023-04-26T10:21:11.468Z,14.83
2023-04-26T10:23:38.868Z,15.03
2023-04-26T10:26:06.016Z,15.09
2023-04-26T10:28:58.338Z,15.32
2023-04-26T10:32:12.181Z,15.63
2023-04-26T10:34:39.402Z,16.35
2023-04-26T10:37:11.659Z,16.57
2023-04-26T10:39:48.868Z,16.23
2023-04-26T10:42:26.741Z,15.99
2023-04-26T10:44:56.593Z,16.31
2023-04-26T10:47:37.425Z,16.43
2023-04-26T10:50:10.353Z,16.33
2023-04-26T10:52:57.251Z,16.32
2023-04-26T10:55:41.950Z,16.15
2023-04-26T10:58:32.125Z,16.42
2023-04-26T11:01:13.451Z,16.28
2023-04-26T11:04:04.894Z,16.48
2023-04-26T11:06:56.197Z,16.27
2023-04-26T11:09:49.096Z,15.78
2023-04-26T11:12:16.826Z,15.83
2023-04-26T11:14:49.316Z,15.35
2023-04-26T11:17:16.404Z,14.51
2023-04-26T11:19:46.893Z,14.65
2023-04-26T11:22:14.026Z,14.58
2023-04-26T11:24:42.917Z,14.74
2023-04-26T11:27:11.145Z,14.99
2023-04-26T11:29:39.097Z,14.93
2023-04-26T11:32:07.191Z,14.93
2023-04-26T11:34:35.902Z,14.77
2023-04-26T11:37:07.666Z,14.54
2023-04-26T11:39:36.052Z,14.32
2023-04-26T11:42:13.261Z,14.18
2023-04-26T11:44:41.580Z,14.57
2023-04-26T11:47:09.630Z,14.61
2023-04-26T11:49:38.282Z,15.01
2023-04-26T11:52:06.192Z,15.33
2023-04-26T11:54:35.984Z,15.93
2023-04-26T11:57:23.593Z,16.18
2023-04-26T11:59:51.388Z,16.03
2023-04-26T12:02:20.718Z,16.18
2023-04-26T12:04:48.426Z,16.67
2023-04-26T12:07:18.987Z,16.91
2023-04-26T12:09:46.298Z,16.95
2023-04-26T12:12:13.386Z,17.11
2023-04-26T12:14:41.035Z,17.63
2023-04-26T12:17:08.605Z,18.50
2023-04-26T12:19:37.421Z,19.29
2023-04-26T12:22:08.779Z,19.97
2023-04-26T12:24:37.814Z,20.12
2023-04-26T12:27:07.277Z,19.85
2023-04-26T12:29:35.634Z,19.98
2023-04-26T12:32:03.488Z,20.30
2023-04-26T12:34:31.220Z,20.08
2023-04-26T12:36:58.678Z,19.29
2023-04-26T12:39:25.879Z,18.90
2023-04-26T12:41:53.476Z,18.09
2023-04-26T12:44:22.528Z,17.57
2023-04-26T12:46:50.223Z,16.98
2023-04-26T12:49:17.559Z,16.78
2023-04-26T12:51:44.742Z,16.41
2023-04-26T12:54:11.801Z,16.08
2023-04-26T12:56:44.627Z,15.93
2023-04-26T12:59:12.154Z,16.27
2023-04-26T13:01:39.501Z,17.74
2023-04-26T13:04:07.036Z,19.16
2023-04-26T13:06:35.977Z,20.15
2023-04-26T13:09:03.948Z,21.61
2023-04-26T13:11:31.410Z,23.00
2023-04-26T13:13:58.559Z,23.71
2023-04-26T13:16:26.293Z,24.53
2023-04-26T13:18:54.517Z,25.15
2023-04-26T13:21:21.638Z,25.71
2023-04-26T13:23:48.703Z,26.54
2023-04-26T13:26:20.416Z,26.84
2023-04-26T13:28:48.284Z,26.65
2023-04-26T13:31:17.571Z,26.42
2023-04-26T13:33:47.459Z,26.54
2023-04-26T13:36:15.952Z,26.67
2023-04-26T13:38:44.293Z,26.15
2023-04-26T13:41:11.383Z,25.77
2023-04-26T13:43:38.689Z,25.50
2023-04-26T13:46:05.805Z,25.91
2023-04-26T13:48:32.974Z,26.16
2023-04-26T13:51:00.298Z,26.11
2023-04-26T13:53:27.325Z,25.99
2023-04-26T13:55:54.344Z,26.42
2023-04-26T13:58:21.933Z,26.55
2023-04-26T14:00:48.982Z,26.46
2023-04-26T14:03:16.438Z,26.64
2023-04-26T14:05:43.573Z,26.38
2023-04-26T14:08:12.868Z,25.90
2023-04-26T14:10:40.509Z,25.68
2023-04-26T14:13:07.606Z,25.72
2023-04-26T14:15:34.735Z,25.41
2023-04-26T14:18:02.006Z,24.47
2023-04-26T14:20:29.164Z,23.84
2023-04-26T14:22:56.429Z,23.78
2023-04-26T14:25:23.500Z,23.94
2023-04-26T14:27:53.050Z,24.19
2023-04-26T14:30:21.100Z,24.31
2023-04-26T14:32:48.227Z,23.95
2023-04-26T14:35:15.894Z,23.91
2023-04-26T14:37:43.092Z,23.66
2023-04-26T14:40:11.703Z,23.06
2023-04-26T14:42:44.452Z,21.82
2023-04-26T14:45:12.786Z,21.04
2023-04-26T14:47:40.314Z,20.24
2023-04-26T14:50:09.856Z,19.73
2023-04-26T14:52:37.582Z,18.97
2023-04-26T14:55:05.513Z,18.51
2023-04-26T14:57:33.021Z,18.17
2023-04-26T15:00:07.026Z,17.98
2023-04-26T15:02:35.260Z,17.69
2023-04-26T15:05:04.133Z,17.46
2023-04-26T15:07:32.905Z,17.39
2023-04-26T15:10:01.710Z,17.08
2023-04-26T15:12:31.715Z,17.11
2023-04-26T15:14:58.905Z,17.03
2023-04-26T15:17:26.181Z,17.00
2023-04-26T15:19:53.473Z,16.95
2023-04-26T15:22:20.714Z,16.88
2023-04-26T15:24:49.707Z,16.91
2023-04-26T15:27:17.809Z,16.92
2023-04-26T15:29:45.035Z,16.86
2023-04-26T15:32:12.438Z,16.97
2023-04-26T15:34:43.755Z,16.89
2023-04-26T15:37:11.853Z,16.98
2023-04-26T15:39:39.159Z,16.85
2023-04-26T15:42:07.068Z,16.94
2023-04-26T15:44:34.318Z,16.68
2023-04-26T15:47:04.331Z,16.94
2023-04-26T15:49:31.413Z,17.04
2023-04-26T15:51:58.599Z,16.92
2023-04-26T15:54:26.816Z,16.87
2023-04-26T15:56:55.352Z,16.66
2023-04-26T15:59:22.619Z,16.61
2023-04-26T16:01:50.846Z,16.49
2023-04-26T16:04:18.339Z,16.38
2023-04-26T16:06:45.948Z,16.22
2023-04-26T16:09:24.798Z,16.15
2023-04-26T16:11:53.137Z,16.19
2023-04-26T16:14:20.816Z,16.11
2023-04-26T16:16:48.223Z,16.22
2023-04-26T16:19:17.394Z,16.27
2023-04-26T16:21:44.632Z,16.14
2023-04-26T16:24:14.877Z,16.27
2023-04-26T16:26:42.170Z,16.08
2023-04-26T16:29:09.300Z,16.20
2023-04-26T16:31:36.667Z,16.21
2023-04-26T16:34:03.964Z,16.13
2023-04-26T16:36:31.714Z,15.81
2023-04-26T16:38:59.062Z,15.86
2023-04-26T16:41:28.970Z,15.99
2023-04-26T16:43:56.272Z,16.04
2023-04-26T16:46:23.643Z,16.02
2023-04-26T16:48:51.112Z,16.00
2023-04-26T16:51:18.485Z,15.90
2023-04-26T16:53:45.765Z,15.73
2023-04-26T16:56:12.998Z,15.73
2023-04-26T16:58:40.160Z,15.78
2023-04-26T17:01:07.234Z,15.61
2023-04-26T17:03:34.634Z,15.69
2023-04-26T17:06:01.916Z,15.44
2023-04-26T17:08:29.055Z,15.59
2023-04-26T17:10:56.578Z,15.66
2023-04-26T17:13:24.275Z,15.70
2023-04-26T17:15:51.542Z,15.68
2023-04-26T17:18:18.657Z,15.75
2023-04-26T17:20:45.681Z,15.65
2023-04-26T17:23:12.808Z,15.61
2023-04-26T17:25:39.781Z,15.72
2023-04-26T17:28:06.923Z,15.68
2023-04-26T17:30:34.180Z,15.23
2023-04-26T17:33:01.428Z,15.13
2023-04-26T17:35:28.557Z,15.17
2023-04-26T17:37:55.660Z,14.99
2023-04-26T17:40:22.914Z,14.94
2023-04-26T17:42:50.276Z,15.05
2023-04-26T17:45:17.876Z,15.14
2023-04-26T17:47:46.068Z,15.10
2023-04-26T17:50:13.521Z,15.00
2023-04-26T17:52:40.569Z,14.96
2023-04-26T17:55:10.067Z,14.93
2023-04-26T17:57:37.800Z,14.87
2023-04-26T18:00:10.261Z,14.97
2023-04-26T18:02:37.775Z,14.98
2023-04-26T18:05:08.582Z,15.10
2023-04-26T18:07:36.203Z,14.93
2023-04-26T18:10:04.459Z,14.93
2023-04-26T18:12:32.638Z,15.04
2023-04-26T18:14:59.710Z,15.13
2023-04-26T18:17:27.174Z,14.97
2023-04-26T18:19:54.398Z,14.87
2023-04-26T18:22:21.579Z,14.91
2023-04-26T18:24:48.840Z,14.73
2023-04-26T18:27:16.112Z,14.71
2023-04-26T18:29:43.401Z,14.60
2023-04-26T18:32:10.483Z,14.50
2023-04-26T18:34:37.492Z,14.42
2023-04-26T18:37:05.020Z,14.32
2023-04-26T18:39:32.381Z,14.41
2023-04-26T18:41:59.523Z,14.44
2023-04-26T18:44:27.140Z,14.42
2023-04-26T18:46:57.217Z,14.33
2023-04-26T18:49:25.072Z,14.25
2023-04-26T18:51:52.041Z,14.18
2023-04-26T18:54:19.201Z,13.99
2023-04-26T18:56:46.238Z,13.97
2023-04-26T18:59:13.435Z,13.96
2023-04-26T19:01:41.130Z,13.92
2023-04-26T19:04:11.069Z,13.95
2023-04-26T19:06:41.374Z,13.87
2023-04-26T19:09:11.831Z,13.64
2023-04-26T19:11:39.224Z,13.74
2023-04-26T19:14:06.357Z,13.62
2023-04-26T19:16:33.790Z,13.64
2023-04-26T19:19:01.615Z,13.71
2023-04-26T19:21:29.011Z,13.72
2023-04-26T19:23:56.121Z,13.67
2023-04-26T19:26:23.154Z,13.56
2023-04-26T19:28:50.384Z,13.60
2023-04-26T19:31:17.552Z,13.51
2023-04-26T19:33:46.223Z,13.66
2023-04-26T19:36:13.282Z,13.70
2023-04-26T19:38:40.341Z,13.69
2023-04-26T19:41:07.506Z,13.66
2023-04-26T19:43:34.660Z,13.70
2023-04-26T19:46:01.754Z,13.57
2023-04-26T19:48:28.865Z,13.50
2023-04-26T19:50:55.906Z,13.47
2023-04-26T19:53:23.151Z,13.31
2023-04-26T19:55:50.665Z,13.14
2023-04-26T19:58:17.852Z,12.95
2023-04-26T20:00:44.961Z,12.87
2023-04-26T20:03:12.251Z,12.65
2023-04-26T20:05:39.485Z,12.74
2023-04-26T20:08:06.564Z,12.65
2023-04-26T20:10:34.342Z,12.63
2023-04-26T20:13:01.706Z,12.59
2023-04-26T20:15:31.023Z,12.61
2023-04-26T20:17:59.729Z,12.48
2023-04-26T20:20:26.836Z,12.45
2023-04-26T20:22:54.509Z,12.24
2023-04-26T20:25:30.858Z,12.38
2023-04-26T20:27:58.032Z,12.38
2023-04-26T20:30:25.929Z,12.35
2023-04-26T20:32:54.148Z,11.94
2023-04-26T20:35:21.740Z,12.17
2023-04-26T20:37:48.826Z,12.16
2023-04-26T20:40:18.468Z,12.20
2023-04-26T20:42:46.485Z,12.11
2023-04-26T20:45:15.958Z,12.07
2023-04-26T20:47:47.152Z,11.86
2023-04-26T20:50:14.521Z,11.81
2023-04-26T20:52:44.860Z,11.50
2023-04-26T20:55:12.056Z,11.91
2023-04-26T20:57:51.230Z,11.88
2023-04-26T21:00:19.335Z,11.98
2023-04-26T21:02:46.602Z,11.73
2023-04-26T21:05:13.758Z,11.87
2023-04-26T21:07:41.331Z,11.91
2023-04-26T21:10:09.030Z,11.74
2023-04-26T21:12:36.353Z,11.70
2023-04-26T21:15:04.115Z,11.66
2023-04-26T21:17:35.435Z,11.64
2023-04-26T21:20:02.968Z,11.68
2023-04-26T21:22:34.313Z,11.66
2023-04-26T21:25:12.552Z,11.60
2023-04-26T21:27:47.812Z,11.56
2023-04-26T21:30:19.112Z,11.44
2023-04-26T21:32:51.903Z,11.43
2023-04-26T21:35:19.643Z,11.42
2023-04-26T21:37:49.252Z,11.41
2023-04-26T21:40:28.421Z,11.41
2023-04-26T21:43:05.882Z,11.39
2023-04-26T21:45:34.222Z,11.09
2023-04-26T21:48:01.308Z,11.32
2023-04-26T21:50:28.513Z,11.27
2023-04-26T21:52:55.553Z,11.03
2023-04-26T21:55:22.769Z,11.15
2023-04-26T21:57:52.009Z,11.23
2023-04-26T22:00:20.139Z,11.25
2023-04-26T22:02:51.530Z,11.28
2023-04-26T22:05:18.796Z,11.28
2023-04-26T22:07:46.094Z,11.56
2023-04-26T22:10:13.227Z,11.78
2023-04-26T22:12:40.166Z,11.74
2023-04-26T22:15:11.646Z,11.46
2023-04-26T22:17:38.728Z,11.41
2023-04-26T22:20:06.477Z,11.39
2023-04-26T22:22:36.945Z,11.28
2023-04-26T22:25:04.365Z,11.18
2023-04-26T22:27:34.345Z,11.12
2023-04-26T22:30:09.412Z,11.04
2023-04-26T22:32:52.840Z,10.97
2023-04-26T22:35:22.864Z,10.89
2023-04-26T22:37:50.120Z,10.92
2023-04-26T22:40:17.722Z,10.94
2023-04-26T22:42:47.995Z,10.62
2023-04-26T22:45:15.396Z,10.62
2023-04-26T22:47:42.491Z,10.57
2023-04-26T22:50:10.140Z,10.62
2023-04-26T22:52:38.761Z,10.57
2023-04-26T22:55:06.911Z,10.57
2023-04-26T22:57:33.981Z,10.42
2023-04-26T23:00:00.956Z,10.31
2023-04-26T23:02:29.177Z,10.13
2023-04-26T23:04:56.712Z,10.30
2023-04-26T23:07:23.922Z,10.32
2023-04-26T23:09:51.164Z,10.29
2023-04-26T23:12:20.156Z,10.22
2023-04-26T23:14:48.830Z,10.30
2023-04-26T23:17:16.417Z,10.32
2023-04-26T23:19:43.480Z,10.12
2023-04-26T23:22:11.090Z,10.18
2023-04-26T23:24:38.053Z,10.25
2023-04-26T23:27:05.054Z,10.22
2023-04-26T23:29:32.028Z,10.13
2023-04-26T23:31:59.297Z,10.03
2023-04-26T23:34:26.712Z,10.00
2023-04-26T23:36:53.743Z,9.89
2023-04-26T23:39:21.156Z,9.81
2023-04-26T23:41:48.188Z,9.81
2023-04-26T23:44:15.381Z,9.83
2023-04-26T23:46:42.437Z,9.82
2023-04-26T23:49:09.643Z,9.77
2023-04-26T23:51:36.841Z,9.70
2023-04-26T23:54:04.030Z,9.38
2023-04-26T23:56:31.660Z,9.37
2023-04-26T23:58:58.687Z,9.48
